sensor_id;sensor_type;location;lat;lon;timestamp;pressure;altitude;pressure_sealevel;temperature;humidity
76586;BME280;65251;51.022;13.736;2023-04-25T00:00:13;98506.22;;;9.58;67.44
76586;BME280;65251;51.022;13.736;2023-04-25T00:00:44;98505.16;;;9.59;67.01
76586;BME280;65251;51.022;13.736;2023-04-25T00:01:16;98503.13;;;9.61;67.08
76586;BME280;65251;51.022;13.736;2023-04-25T00:01:47;98499.63;;;9.61;66.81
76586;BME280;65251;51.022;13.736;2023-04-25T00:02:18;98505.34;;;9.64;67.65
76586;BME280;65251;51.022;13.736;2023-04-25T00:02:50;98505.16;;;9.59;66.79
76586;BME280;65251;51.022;13.736;2023-04-25T00:03:20;98501.28;;;9.62;67.54
76586;BME280;65251;51.022;13.736;2023-04-25T00:03:51;98499.41;;;9.62;67.63
76586;BME280;65251;51.022;13.736;2023-04-25T00:04:23;98499.00;;;9.65;67.71
76586;BME280;65251;51.022;13.736;2023-04-25T00:04:54;98500.03;;;9.64;66.83
76586;BME280;65251;51.022;13.736;2023-04-25T00:05:28;98500.41;;;9.68;66.81
76586;BME280;65251;51.022;13.736;2023-04-25T00:06:01;98500.19;;;9.70;66.23
76586;BME280;65251;51.022;13.736;2023-04-25T00:06:32;98496.13;;;9.67;67.35
76586;BME280;65251;51.022;13.736;2023-04-25T00:07:06;98493.25;;;9.68;67.85
76586;BME280;65251;51.022;13.736;2023-04-25T00:07:38;98505.50;;;9.70;67.53
76586;BME280;65251;51.022;13.736;2023-04-25T00:08:08;98499.16;;;9.71;67.41
76586;BME280;65251;51.022;13.736;2023-04-25T00:08:40;98499.38;;;9.69;67.80
76586;BME280;65251;51.022;13.736;2023-04-25T00:09:11;98502.84;;;9.70;67.91
76586;BME280;65251;51.022;13.736;2023-04-25T00:09:42;98497.75;;;9.68;66.94
76586;BME280;65251;51.022;13.736;2023-04-25T00:10:13;98505.91;;;9.73;67.90
76586;BME280;65251;51.022;13.736;2023-04-25T00:10:45;98502.41;;;9.73;67.78
76586;BME280;65251;51.022;13.736;2023-04-25T00:11:17;98507.31;;;9.76;67.82
76586;BME280;65251;51.022;13.736;2023-04-25T00:11:48;98499.13;;;9.77;66.51
76586;BME280;65251;51.022;13.736;2023-04-25T00:12:20;98499.69;;;9.79;66.52
76586;BME280;65251;51.022;13.736;2023-04-25T00:12:52;98495.78;;;9.82;66.15
76586;BME280;65251;51.022;13.736;2023-04-25T00:13:24;98498.22;;;9.83;66.85
76586;BME280;65251;51.022;13.736;2023-04-25T00:13:55;98496.97;;;9.86;66.86
76586;BME280;65251;51.022;13.736;2023-04-25T00:14:26;98500.81;;;9.90;65.64
76586;BME280;65251;51.022;13.736;2023-04-25T00:14:58;98502.47;;;9.91;66.95
76586;BME280;65251;51.022;13.736;2023-04-25T00:15:30;98494.47;;;9.91;66.71
76586;BME280;65251;51.022;13.736;2023-04-25T00:16:01;98497.13;;;9.91;67.35
76586;BME280;65251;51.022;13.736;2023-04-25T00:16:32;98492.63;;;9.91;65.88
76586;BME280;65251;51.022;13.736;2023-04-25T00:17:05;98496.53;;;9.89;66.53
76586;BME280;65251;51.022;13.736;2023-04-25T00:17:36;98488.34;;;9.90;65.89
76586;BME280;65251;51.022;13.736;2023-04-25T00:18:08;98494.03;;;9.94;65.63
76586;BME280;65251;51.022;13.736;2023-04-25T00:18:39;98496.47;;;9.95;66.42
76586;BME280;65251;51.022;13.736;2023-04-25T00:19:10;98493.00;;;9.95;66.38
76586;BME280;65251;51.022;13.736;2023-04-25T00:19:43;98504.25;;;9.97;65.35
76586;BME280;65251;51.022;13.736;2023-04-25T00:20:15;98491.16;;;9.95;66.57
76586;BME280;65251;51.022;13.736;2023-04-25T00:20:47;98496.25;;;9.97;66.21
76586;BME280;65251;51.022;13.736;2023-04-25T00:21:18;98492.31;;;9.99;65.73
76586;BME280;65251;51.022;13.736;2023-04-25T00:21:50;98491.28;;;10.00;65.05
76586;BME280;65251;51.022;13.736;2023-04-25T00:22:21;98494.78;;;10.01;64.97
76586;BME280;65251;51.022;13.736;2023-04-25T00:22:52;98494.78;;;10.01;65.24
76586;BME280;65251;51.022;13.736;2023-04-25T00:23:23;98499.66;;;10.04;64.68
76586;BME280;65251;51.022;13.736;2023-04-25T00:23:55;98490.47;;;10.00;64.99
76586;BME280;65251;51.022;13.736;2023-04-25T00:24:26;98499.88;;;10.02;64.91
76586;BME280;65251;51.022;13.736;2023-04-25T00:24:57;98502.09;;;10.06;65.94
76586;BME280;65251;51.022;13.736;2023-04-25T00:25:30;98501.06;;;10.07;64.42
76586;BME280;65251;51.022;13.736;2023-04-25T00:26:02;98495.16;;;10.05;65.31
76586;BME280;65251;51.022;13.736;2023-04-25T00:26:35;98500.03;;;10.08;65.62
76586;BME280;65251;51.022;13.736;2023-04-25T00:27:05;98496.94;;;10.11;65.30
76586;BME280;65251;51.022;13.736;2023-04-25T00:27:37;98498.78;;;10.10;64.90
76586;BME280;65251;51.022;13.736;2023-04-25T00:28:09;98502.03;;;10.12;64.59
76586;BME280;65251;51.022;13.736;2023-04-25T00:28:40;98499.81;;;10.09;65.13
76586;BME280;65251;51.022;13.736;2023-04-25T00:29:11;98503.88;;;10.12;64.65
76586;BME280;65251;51.022;13.736;2023-04-25T00:29:42;98504.69;;;10.12;64.41
76586;BME280;65251;51.022;13.736;2023-04-25T00:30:13;98499.38;;;10.12;65.09
76586;BME280;65251;51.022;13.736;2023-04-25T00:30:45;98494.28;;;10.11;65.09
76586;BME280;65251;51.022;13.736;2023-04-25T00:31:16;98505.53;;;10.13;65.15
76586;BME280;65251;51.022;13.736;2023-04-25T00:31:47;98506.78;;;10.10;65.14
76586;BME280;65251;51.022;13.736;2023-04-25T00:32:18;98504.09;;;10.10;64.44
76586;BME280;65251;51.022;13.736;2023-04-25T00:32:49;98501.28;;;10.05;65.75
76586;BME280;65251;51.022;13.736;2023-04-25T00:33:21;98509.28;;;10.05;64.06
76586;BME280;65251;51.022;13.736;2023-04-25T00:33:52;98502.91;;;10.06;64.29
76586;BME280;65251;51.022;13.736;2023-04-25T00:34:23;98504.16;;;10.03;65.11
76586;BME280;65251;51.022;13.736;2023-04-25T00:34:54;98511.94;;;10.05;64.24
76586;BME280;65251;51.022;13.736;2023-04-25T00:35:28;98510.38;;;9.97;65.04
76586;BME280;65251;51.022;13.736;2023-04-25T00:35:58;98508.97;;;9.95;65.21
76586;BME280;65251;51.022;13.736;2023-04-25T00:36:29;98513.47;;;9.94;64.38
76586;BME280;65251;51.022;13.736;2023-04-25T00:37:01;98508.38;;;9.93;65.34
76586;BME280;65251;51.022;13.736;2023-04-25T00:37:32;98514.13;;;9.90;65.89
76586;BME280;65251;51.022;13.736;2023-04-25T00:38:03;98512.72;;;9.87;65.12
76586;BME280;65251;51.022;13.736;2023-04-25T00:38:35;98499.41;;;9.87;66.37
76586;BME280;65251;51.022;13.736;2023-04-25T00:39:06;98506.81;;;9.85;65.77
76586;BME280;65251;51.022;13.736;2023-04-25T00:39:37;98511.94;;;9.80;65.78
76586;BME280;65251;51.022;13.736;2023-04-25T00:40:09;98502.59;;;9.78;66.02
76586;BME280;65251;51.022;13.736;2023-04-25T00:40:40;98498.50;;;9.75;65.63
76586;BME280;65251;51.022;13.736;2023-04-25T00:41:13;98507.31;;;9.76;65.10
76586;BME280;65251;51.022;13.736;2023-04-25T00:41:47;98501.59;;;9.72;65.91
76586;BME280;65251;51.022;13.736;2023-04-25T00:42:18;98501.81;;;9.71;64.92
76586;BME280;65251;51.022;13.736;2023-04-25T00:42:52;98503.06;;;9.68;65.12
76586;BME280;65251;51.022;13.736;2023-04-25T00:43:25;98505.94;;;9.66;65.86
76586;BME280;65251;51.022;13.736;2023-04-25T00:43:56;98502.69;;;9.64;66.13
76586;BME280;65251;51.022;13.736;2023-04-25T00:44:29;98508.59;;;9.66;65.52
76586;BME280;65251;51.022;13.736;2023-04-25T00:45:01;98501.06;;;9.63;65.52
76586;BME280;65251;51.022;13.736;2023-04-25T00:45:38;98503.13;;;9.61;65.37
76586;BME280;65251;51.022;13.736;2023-04-25T00:46:10;98504.31;;;9.65;65.54
76586;BME280;65251;51.022;13.736;2023-04-25T00:46:41;98500.84;;;9.65;65.90
76586;BME280;65251;51.022;13.736;2023-04-25T00:47:13;98505.34;;;9.64;66.23
76586;BME280;65251;51.022;13.736;2023-04-25T00:47:45;98506.59;;;9.62;65.19
76586;BME280;65251;51.022;13.736;2023-04-25T00:48:17;98495.34;;;9.60;66.16
76586;BME280;65251;51.022;13.736;2023-04-25T00:48:48;98489.00;;;9.61;66.13
76586;BME280;65251;51.022;13.736;2023-04-25T00:49:20;98502.16;;;9.56;65.47
76586;BME280;65251;51.022;13.736;2023-04-25T00:49:51;98498.91;;;9.54;65.84
76586;BME280;65251;51.022;13.736;2023-04-25T00:50:24;98490.97;;;9.47;65.90
76586;BME280;65251;51.022;13.736;2023-04-25T00:50:58;98497.53;;;9.45;66.68
76586;BME280;65251;51.022;13.736;2023-04-25T00:51:29;98499.44;;;9.38;67.06
76586;BME280;65251;51.022;13.736;2023-04-25T00:52:01;98495.75;;;9.39;66.48
76586;BME280;65251;51.022;13.736;2023-04-25T00:52:33;98495.16;;;9.37;66.97
76586;BME280;65251;51.022;13.736;2023-04-25T00:53:04;98495.97;;;9.37;65.83
76586;BME280;65251;51.022;13.736;2023-04-25T00:53:38;98499.44;;;9.38;66.25
76586;BME280;65251;51.022;13.736;2023-04-25T00:54:12;98492.50;;;9.37;66.02
76586;BME280;65251;51.022;13.736;2023-04-25T00:54:43;98490.66;;;9.37;66.02
76586;BME280;65251;51.022;13.736;2023-04-25T00:55:17;98490.03;;;9.35;67.24
76586;BME280;65251;51.022;13.736;2023-04-25T00:55:48;98498.25;;;9.33;66.88
76586;BME280;65251;51.022;13.736;2023-04-25T00:56:24;98495.41;;;9.28;66.97
76586;BME280;65251;51.022;13.736;2023-04-25T00:56:57;98492.75;;;9.28;66.50
76586;BME280;65251;51.022;13.736;2023-04-25T00:57:29;98487.84;;;9.25;67.33
76586;BME280;65251;51.022;13.736;2023-04-25T00:58:00;98492.78;;;9.22;67.09
76586;BME280;65251;51.022;13.736;2023-04-25T00:58:32;98491.97;;;9.21;66.54
76586;BME280;65251;51.022;13.736;2023-04-25T00:59:03;98489.53;;;9.20;66.88
76586;BME280;65251;51.022;13.736;2023-04-25T00:59:36;98488.94;;;9.18;66.60
76586;BME280;65251;51.022;13.736;2023-04-25T01:00:10;98487.09;;;9.18;66.33
76586;BME280;65251;51.022;13.736;2023-04-25T01:00:42;98488.13;;;9.17;66.35
76586;BME280;65251;51.022;13.736;2023-04-25T01:01:13;98488.94;;;9.18;66.40
76586;BME280;65251;51.022;13.736;2023-04-25T01:01:45;98495.66;;;9.20;66.61
76586;BME280;65251;51.022;13.736;2023-04-25T01:02:16;98489.16;;;9.16;66.15
76586;BME280;65251;51.022;13.736;2023-04-25T01:02:48;98486.72;;;9.15;66.62
76586;BME280;65251;51.022;13.736;2023-04-25T01:03:21;98488.78;;;9.13;66.80
76586;BME280;65251;51.022;13.736;2023-04-25T01:03:53;98494.72;;;9.08;67.51
76586;BME280;65251;51.022;13.736;2023-04-25T01:04:25;98487.59;;;9.02;68.03
76586;BME280;65251;51.022;13.736;2023-04-25T01:04:58;98487.38;;;9.04;67.38
76586;BME280;65251;51.022;13.736;2023-04-25T01:05:29;98499.63;;;9.05;67.60
76586;BME280;65251;51.022;13.736;2023-04-25T01:06:01;98494.31;;;9.05;66.77
76586;BME280;65251;51.022;13.736;2023-04-25T01:06:33;98489.81;;;9.05;67.39
76586;BME280;65251;51.022;13.736;2023-04-25T01:07:03;98494.31;;;9.05;67.37
76586;BME280;65251;51.022;13.736;2023-04-25T01:07:34;98492.69;;;9.04;67.59
76586;BME280;65251;51.022;13.736;2023-04-25T01:08:06;98491.88;;;9.03;66.72
76586;BME280;65251;51.022;13.736;2023-04-25T01:08:38;98487.81;;;9.01;66.81
76586;BME280;65251;51.022;13.736;2023-04-25T01:09:10;98494.38;;;8.98;66.76
76586;BME280;65251;51.022;13.736;2023-04-25T01:09:41;98492.97;;;8.95;67.07
76586;BME280;65251;51.022;13.736;2023-04-25T01:10:12;98494.00;;;8.94;67.20
76586;BME280;65251;51.022;13.736;2023-04-25T01:10:43;98491.53;;;8.93;66.98
76586;BME280;65251;51.022;13.736;2023-04-25T01:11:15;98493.19;;;8.94;67.50
76586;BME280;65251;51.022;13.736;2023-04-25T01:11:46;98485.03;;;8.89;66.97
76586;BME280;65251;51.022;13.736;2023-04-25T01:12:18;98489.09;;;8.91;67.23
76586;BME280;65251;51.022;13.736;2023-04-25T01:12:50;98486.44;;;8.91;67.11
76586;BME280;65251;51.022;13.736;2023-04-25T01:13:21;98491.16;;;8.89;67.56
76586;BME280;65251;51.022;13.736;2023-04-25T01:13:51;98493.81;;;8.89;67.60
76586;BME280;65251;51.022;13.736;2023-04-25T01:14:23;98491.38;;;8.88;67.38
76586;BME280;65251;51.022;13.736;2023-04-25T01:14:54;98490.16;;;8.84;67.88
76586;BME280;65251;51.022;13.736;2023-04-25T01:15:25;98495.69;;;8.82;67.58
76586;BME280;65251;51.022;13.736;2023-04-25T01:15:57;98497.38;;;8.77;67.88
76586;BME280;65251;51.022;13.736;2023-04-25T01:16:28;98495.53;;;8.77;67.94
76586;BME280;65251;51.022;13.736;2023-04-25T01:16:59;98491.03;;;8.71;68.13
76586;BME280;65251;51.022;13.736;2023-04-25T01:17:30;98493.50;;;8.73;67.49
76586;BME280;65251;51.022;13.736;2023-04-25T01:18:02;98485.75;;;8.71;67.36
76586;BME280;65251;51.022;13.736;2023-04-25T01:18:33;98493.50;;;8.73;67.65
76586;BME280;65251;51.022;13.736;2023-04-25T01:19:05;98493.50;;;8.73;67.43
76586;BME280;65251;51.022;13.736;2023-04-25T01:19:41;98490.03;;;8.72;67.23
76586;BME280;65251;51.022;13.736;2023-04-25T01:20:13;98492.06;;;8.70;67.84
76586;BME280;65251;51.022;13.736;2023-04-25T01:20:46;98486.38;;;8.67;67.62
76586;BME280;65251;51.022;13.736;2023-04-25T01:21:19;98489.63;;;8.69;67.73
76586;BME280;65251;51.022;13.736;2023-04-25T01:21:51;98489.44;;;8.63;67.57
76586;BME280;65251;51.022;13.736;2023-04-25T01:22:22;98494.13;;;8.61;67.70
76586;BME280;65251;51.022;13.736;2023-04-25T01:22:55;98495.16;;;8.60;68.00
76586;BME280;65251;51.022;13.736;2023-04-25T01:23:26;98485.56;;;8.59;67.84
76586;BME280;65251;51.022;13.736;2023-04-25T01:23:57;98495.78;;;8.62;67.53
76586;BME280;65251;51.022;13.736;2023-04-25T01:24:29;98493.13;;;8.62;67.33
76586;BME280;65251;51.022;13.736;2023-04-25T01:25:01;98496.19;;;8.59;67.28
76586;BME280;65251;51.022;13.736;2023-04-25T01:25:33;98489.84;;;8.60;67.32
76586;BME280;65251;51.022;13.736;2023-04-25T01:26:06;98496.19;;;8.59;67.82
76586;BME280;65251;51.022;13.736;2023-04-25T01:26:38;98492.75;;;8.59;67.72
76586;BME280;65251;51.022;13.736;2023-04-25T01:27:10;98494.59;;;8.58;67.43
76586;BME280;65251;51.022;13.736;2023-04-25T01:27:42;98486.00;;;8.56;67.85
76586;BME280;65251;51.022;13.736;2023-04-25T01:28:14;98490.31;;;8.57;67.87
76586;BME280;65251;51.022;13.736;2023-04-25T01:28:45;98491.94;;;8.58;67.42
76586;BME280;65251;51.022;13.736;2023-04-25T01:29:17;98489.09;;;8.53;67.45
76586;BME280;65251;51.022;13.736;2023-04-25T01:29:50;98485.44;;;8.48;67.79
76586;BME280;65251;51.022;13.736;2023-04-25T01:30:21;98495.84;;;8.49;67.77
76586;BME280;65251;51.022;13.736;2023-04-25T01:30:52;98492.16;;;8.50;67.61
76586;BME280;65251;51.022;13.736;2023-04-25T01:31:25;98492.97;;;8.51;67.62
76586;BME280;65251;51.022;13.736;2023-04-25T01:31:57;98494.00;;;8.50;67.56
76586;BME280;65251;51.022;13.736;2023-04-25T01:32:30;98488.50;;;8.45;67.41
76586;BME280;65251;51.022;13.736;2023-04-25T01:33:09;98487.47;;;8.46;67.97
76586;BME280;65251;51.022;13.736;2023-04-25T01:33:40;98487.69;;;8.44;67.71
76586;BME280;65251;51.022;13.736;2023-04-25T01:34:11;98488.72;;;8.43;67.32
76586;BME280;65251;51.022;13.736;2023-04-25T01:34:42;98487.47;;;8.46;67.68
76586;BME280;65251;51.022;13.736;2023-04-25T01:35:13;98486.88;;;8.44;67.76
76586;BME280;65251;51.022;13.736;2023-04-25T01:35:44;98494.00;;;8.43;67.92
76586;BME280;65251;51.022;13.736;2023-04-25T01:36:19;98490.53;;;8.43;67.69
76586;BME280;65251;51.022;13.736;2023-04-25T01:36:50;98489.72;;;8.42;67.30
76586;BME280;65251;51.022;13.736;2023-04-25T01:37:22;98490.97;;;8.40;67.77
76586;BME280;65251;51.022;13.736;2023-04-25T01:37:53;98492.00;;;8.39;67.85
76586;BME280;65251;51.022;13.736;2023-04-25T01:38:25;98491.63;;;8.35;67.60
76586;BME280;65251;51.022;13.736;2023-04-25T01:38:56;98495.69;;;8.38;67.86
76586;BME280;65251;51.022;13.736;2023-04-25T01:39:28;98496.50;;;8.38;67.66
76586;BME280;65251;51.022;13.736;2023-04-25T01:40:00;98487.72;;;8.38;67.60
76586;BME280;65251;51.022;13.736;2023-04-25T01:40:31;98494.88;;;8.37;67.63
76586;BME280;65251;51.022;13.736;2023-04-25T01:41:05;98497.31;;;8.39;67.46
76586;BME280;65251;51.022;13.736;2023-04-25T01:41:36;98486.09;;;8.37;67.39
76586;BME280;65251;51.022;13.736;2023-04-25T01:42:07;98498.97;;;8.33;67.82
76586;BME280;65251;51.022;13.736;2023-04-25T01:42:42;98497.13;;;8.34;67.81
76586;BME280;65251;51.022;13.736;2023-04-25T01:43:13;98498.16;;;8.33;67.61
76586;BME280;65251;51.022;13.736;2023-04-25T01:43:45;98495.50;;;8.33;67.53
76586;BME280;65251;51.022;13.736;2023-04-25T01:44:17;98493.22;;;8.29;67.67
76586;BME280;65251;51.022;13.736;2023-04-25T01:44:47;98495.66;;;8.31;67.37
76586;BME280;65251;51.022;13.736;2023-04-25T01:45:18;98493.03;;;8.31;67.40
76586;BME280;65251;51.022;13.736;2023-04-25T01:45:50;98494.69;;;8.32;67.16
76586;BME280;65251;51.022;13.736;2023-04-25T01:46:22;98499.34;;;8.30;67.46
76586;BME280;65251;51.022;13.736;2023-04-25T01:46:54;98500.16;;;8.30;67.63
76586;BME280;65251;51.022;13.736;2023-04-25T01:47:26;98496.91;;;8.28;67.66
76586;BME280;65251;51.022;13.736;2023-04-25T01:47:56;98496.09;;;8.28;67.69
76586;BME280;65251;51.022;13.736;2023-04-25T01:48:29;98489.16;;;8.27;67.68
76586;BME280;65251;51.022;13.736;2023-04-25T01:49:01;98498.53;;;8.23;67.49
76586;BME280;65251;51.022;13.736;2023-04-25T01:49:32;98496.09;;;8.21;68.22
76586;BME280;65251;51.022;13.736;2023-04-25T01:50:05;98490.41;;;8.18;67.55
76586;BME280;65251;51.022;13.736;2023-04-25T01:50:37;98494.47;;;8.20;67.87
76586;BME280;65251;51.022;13.736;2023-04-25T01:51:08;98497.94;;;8.21;67.79
76586;BME280;65251;51.022;13.736;2023-04-25T01:51:41;98493.66;;;8.20;67.41
76586;BME280;65251;51.022;13.736;2023-04-25T01:52:13;98492.03;;;8.19;67.77
76586;BME280;65251;51.022;13.736;2023-04-25T01:52:44;98497.13;;;8.20;67.84
76586;BME280;65251;51.022;13.736;2023-04-25T01:53:15;98489.41;;;8.19;67.85
76586;BME280;65251;51.022;13.736;2023-04-25T01:53:47;98490.41;;;8.18;67.73
76586;BME280;65251;51.022;13.736;2023-04-25T01:54:18;98494.09;;;8.17;68.22
76586;BME280;65251;51.022;13.736;2023-04-25T01:54:49;98486.53;;;8.14;67.84
76586;BME280;65251;51.022;13.736;2023-04-25T01:55:22;98489.19;;;8.14;67.93
76586;BME280;65251;51.022;13.736;2023-04-25T01:55:53;98489.19;;;8.14;68.03
76586;BME280;65251;51.022;13.736;2023-04-25T01:56:24;98489.59;;;8.11;68.60
76586;BME280;65251;51.022;13.736;2023-04-25T01:56:57;98486.34;;;8.09;68.08
76586;BME280;65251;51.022;13.736;2023-04-25T01:57:28;98489.81;;;8.09;67.73
76586;BME280;65251;51.022;13.736;2023-04-25T01:57:58;98492.66;;;8.08;68.02
76586;BME280;65251;51.022;13.736;2023-04-25T01:58:31;98487.56;;;8.06;67.90
76586;BME280;65251;51.022;13.736;2023-04-25T01:59:01;98494.91;;;8.04;68.54
76586;BME280;65251;51.022;13.736;2023-04-25T01:59:32;98487.16;;;8.03;68.22
76586;BME280;65251;51.022;13.736;2023-04-25T02:00:06;98490.44;;;8.05;68.39
76586;BME280;65251;51.022;13.736;2023-04-25T02:00:37;98491.66;;;8.02;68.41
76586;BME280;65251;51.022;13.736;2023-04-25T02:01:09;98485.53;;;8.02;68.40
76586;BME280;65251;51.022;13.736;2023-04-25T02:01:40;98490.63;;;8.03;68.13
76586;BME280;65251;51.022;13.736;2023-04-25T02:02:11;98491.66;;;8.02;68.06
76586;BME280;65251;51.022;13.736;2023-04-25T02:02:42;98495.94;;;8.03;68.35
76586;BME280;65251;51.022;13.736;2023-04-25T02:03:13;98488.38;;;8.00;68.23
76586;BME280;65251;51.022;13.736;2023-04-25T02:03:44;98487.81;;;7.98;68.20
76586;BME280;65251;51.022;13.736;2023-04-25T02:04:16;98493.50;;;8.02;67.86
76586;BME280;65251;51.022;13.736;2023-04-25T02:04:46;98491.44;;;8.04;68.09
76586;BME280;65251;51.022;13.736;2023-04-25T02:05:17;98484.31;;;8.04;68.05
76586;BME280;65251;51.022;13.736;2023-04-25T02:05:49;98494.72;;;8.06;67.80
76586;BME280;65251;51.022;13.736;2023-04-25T02:06:20;98488.78;;;8.04;67.89
76586;BME280;65251;51.022;13.736;2023-04-25T02:06:52;98490.22;;;8.06;67.85
76586;BME280;65251;51.022;13.736;2023-04-25T02:07:23;98490.44;;;8.05;67.91
76586;BME280;65251;51.022;13.736;2023-04-25T02:07:54;98495.94;;;8.03;67.72
76586;BME280;65251;51.022;13.736;2023-04-25T02:08:25;98496.75;;;8.04;67.73
76586;BME280;65251;51.022;13.736;2023-04-25T02:08:57;98495.31;;;8.01;67.97
76586;BME280;65251;51.022;13.736;2023-04-25T02:09:28;98491.84;;;8.01;67.91
76586;BME280;65251;51.022;13.736;2023-04-25T02:09:58;98489.22;;;8.01;67.47
76586;BME280;65251;51.022;13.736;2023-04-25T02:10:30;98495.53;;;8.00;67.74
76586;BME280;65251;51.022;13.736;2023-04-25T02:11:01;98489.44;;;7.99;67.87
76586;BME280;65251;51.022;13.736;2023-04-25T02:11:33;98490.22;;;8.00;67.96
76586;BME280;65251;51.022;13.736;2023-04-25T02:12:05;98495.78;;;7.98;67.98
76586;BME280;65251;51.022;13.736;2023-04-25T02:12:36;98489.03;;;7.95;68.08
76586;BME280;65251;51.022;13.736;2023-04-25T02:13:07;98494.34;;;7.95;68.35
76586;BME280;65251;51.022;13.736;2023-04-25T02:13:38;98487.41;;;7.94;68.14
76586;BME280;65251;51.022;13.736;2023-04-25T02:14:09;98496.38;;;7.93;67.90
76586;BME280;65251;51.022;13.736;2023-04-25T02:14:40;98496.59;;;7.92;68.81
76586;BME280;65251;51.022;13.736;2023-04-25T02:15:12;98495.97;;;7.90;68.32
76586;BME280;65251;51.022;13.736;2023-04-25T02:15:42;98489.25;;;7.87;68.97
76586;BME280;65251;51.022;13.736;2023-04-25T02:16:13;98498.00;;;7.88;68.20
76586;BME280;65251;51.022;13.736;2023-04-25T02:16:44;98494.34;;;7.89;68.24
76586;BME280;65251;51.022;13.736;2023-04-25T02:17:16;98487.41;;;7.88;67.90
76586;BME280;65251;51.022;13.736;2023-04-25T02:17:48;98489.25;;;7.87;68.28
76586;BME280;65251;51.022;13.736;2023-04-25T02:18:19;98487.41;;;7.88;68.14
76586;BME280;65251;51.022;13.736;2023-04-25T02:18:51;98489.84;;;7.89;68.42
76586;BME280;65251;51.022;13.736;2023-04-25T02:19:23;98491.91;;;7.87;68.15
76586;BME280;65251;51.022;13.736;2023-04-25T02:19:53;98491.69;;;7.89;68.20
76586;BME280;65251;51.022;13.736;2023-04-25T02:20:26;98491.47;;;7.90;68.18
76586;BME280;65251;51.022;13.736;2023-04-25T02:20:58;98495.38;;;7.88;68.43
76586;BME280;65251;51.022;13.736;2023-04-25T02:21:29;98491.91;;;7.87;68.43
76586;BME280;65251;51.022;13.736;2023-04-25T02:22:02;98490.66;;;7.90;68.29
76586;BME280;65251;51.022;13.736;2023-04-25T02:22:33;98490.88;;;7.88;68.08
76586;BME280;65251;51.022;13.736;2023-04-25T02:23:05;98490.88;;;7.88;68.04
76586;BME280;65251;51.022;13.736;2023-04-25T02:23:37;98493.53;;;7.88;68.22
76586;BME280;65251;51.022;13.736;2023-04-25T02:24:08;98486.38;;;7.89;68.33
76586;BME280;65251;51.022;13.736;2023-04-25T02:24:39;98488.84;;;7.90;67.99
76586;BME280;65251;51.022;13.736;2023-04-25T02:25:11;98494.97;;;7.91;68.24
76586;BME280;65251;51.022;13.736;2023-04-25T02:25:42;98493.31;;;7.90;68.52
76586;BME280;65251;51.022;13.736;2023-04-25T02:26:13;98489.84;;;7.89;68.57
76586;BME280;65251;51.022;13.736;2023-04-25T02:26:44;98488.84;;;7.90;68.53
76586;BME280;65251;51.022;13.736;2023-04-25T02:27:17;98493.94;;;7.92;68.28
76586;BME280;65251;51.022;13.736;2023-04-25T02:27:48;98496.78;;;7.90;67.98
76586;BME280;65251;51.022;13.736;2023-04-25T02:28:19;98488.84;;;7.90;68.36
76586;BME280;65251;51.022;13.736;2023-04-25T02:28:51;98492.50;;;7.89;68.46
76586;BME280;65251;51.022;13.736;2023-04-25T02:29:22;98491.28;;;7.92;68.20
76586;BME280;65251;51.022;13.736;2023-04-25T02:29:52;98493.72;;;7.93;68.21
76586;BME280;65251;51.022;13.736;2023-04-25T02:30:24;98489.66;;;7.91;68.12
76586;BME280;65251;51.022;13.736;2023-04-25T02:30:55;98487.19;;;7.89;68.49
76586;BME280;65251;51.022;13.736;2023-04-25T02:31:25;98483.72;;;7.89;68.25
76586;BME280;65251;51.022;13.736;2023-04-25T02:31:57;98486.59;;;7.87;68.20
76586;BME280;65251;51.022;13.736;2023-04-25T02:32:28;98488.63;;;7.85;68.71
76586;BME280;65251;51.022;13.736;2023-04-25T02:32:59;98493.13;;;7.85;68.41
76586;BME280;65251;51.022;13.736;2023-04-25T02:33:31;98493.72;;;7.80;68.85
76586;BME280;65251;51.022;13.736;2023-04-25T02:34:01;98482.75;;;7.77;68.83
76586;BME280;65251;51.022;13.736;2023-04-25T02:34:32;98484.38;;;7.78;68.72
76586;BME280;65251;51.022;13.736;2023-04-25T02:35:04;98483.75;;;7.76;69.39
76586;BME280;65251;51.022;13.736;2023-04-25T02:35:36;98485.59;;;7.75;68.91
76586;BME280;65251;51.022;13.736;2023-04-25T02:36:07;98485.59;;;7.75;68.77
76586;BME280;65251;51.022;13.736;2023-04-25T02:36:38;98490.28;;;7.73;69.04
76586;BME280;65251;51.022;13.736;2023-04-25T02:37:11;98483.56;;;7.71;69.26
76586;BME280;65251;51.022;13.736;2023-04-25T02:37:42;98481.53;;;7.73;68.87
76586;BME280;65251;51.022;13.736;2023-04-25T02:38:14;98487.84;;;7.72;68.95
76586;BME280;65251;51.022;13.736;2023-04-25T02:38:45;98484.16;;;7.73;68.86
76586;BME280;65251;51.022;13.736;2023-04-25T02:39:15;98488.44;;;7.74;69.38
76586;BME280;65251;51.022;13.736;2023-04-25T02:39:47;98478.66;;;7.74;69.13
76586;BME280;65251;51.022;13.736;2023-04-25T02:40:18;98484.16;;;7.73;68.91
76586;BME280;65251;51.022;13.736;2023-04-25T02:40:48;98477.84;;;7.67;69.33
76586;BME280;65251;51.022;13.736;2023-04-25T02:41:19;98495.19;;;7.70;69.91
76586;BME280;65251;51.022;13.736;2023-04-25T02:41:52;98482.75;;;7.70;69.14
76586;BME280;65251;51.022;13.736;2023-04-25T02:42:22;98487.44;;;7.68;69.42
76586;BME280;65251;51.022;13.736;2023-04-25T02:42:53;98484.97;;;7.73;69.38
76586;BME280;65251;51.022;13.736;2023-04-25T02:43:25;98487.63;;;7.73;69.10
76586;BME280;65251;51.022;13.736;2023-04-25T02:43:56;98479.88;;;7.72;69.06
76586;BME280;65251;51.022;13.736;2023-04-25T02:44:26;98493.97;;;7.72;69.58
76586;BME280;65251;51.022;13.736;2023-04-25T02:44:58;98482.34;;;7.73;69.17
76586;BME280;65251;51.022;13.736;2023-04-25T02:45:29;98482.75;;;7.70;69.30
76586;BME280;65251;51.022;13.736;2023-04-25T02:46:00;98485.38;;;7.70;69.11
76586;BME280;65251;51.022;13.736;2023-04-25T02:46:31;98484.97;;;7.67;69.44
76586;BME280;65251;51.022;13.736;2023-04-25T02:47:02;98479.88;;;7.65;69.65
76586;BME280;65251;51.022;13.736;2023-04-25T02:47:33;98479.06;;;7.65;70.19